Zwolle, Louisiana
Current Conditions -  °F | °C
As of 1:56 PM on Tuesday 21 Oct 2014 (Local Time) from KAQV Reporting Station
Clear Clear  
Wind Chill: 80°   Ceiling: Unl
Heat Index: 81°   Visibility: 10mi
Dew Point: 61°   Wind: 5mph
Humidity: 52%   Direction: NA
Pressure: 30.03"   Gusts: NA
Location:  31.63°N, 93.64°W
Report Text: KAQV 211856Z AUTO VRB04KT 10SM CLR 27/16 A3003 RMK AO2 SLP169 T02670161
Loading
Personal Weather Stations






























Interactive Weather Map
Tropical Storm Tracking
New forecast layout! Learn more

10-Day Weather Forecast

Advertisements
Track Severe Weather on mobile